sensor_id;sensor_type;location;lat;lon;timestamp;P1;durP1;ratioP1;P2;durP2;ratioP2
27572;SDS011;15009;53.082;8.768;2022-09-09T00:03:00;23.13;;;15.68;;
27572;SDS011;15009;53.082;8.768;2022-09-09T00:09:19;24.20;;;17.60;;
27572;SDS011;15009;53.082;8.768;2022-09-09T00:12:26;28.20;;;18.73;;
27572;SDS011;15009;53.082;8.768;2022-09-09T00:19:02;31.13;;;20.67;;
27572;SDS011;15009;53.082;8.768;2022-09-09T00:22:16;27.90;;;20.52;;
27572;SDS011;15009;53.082;8.768;2022-09-09T00:25:24;26.92;;;19.33;;
27572;SDS011;15009;53.082;8.768;2022-09-09T00:28:30;31.58;;;21.02;;
27572;SDS011;15009;53.082;8.768;2022-09-09T00:31:36;30.75;;;21.08;;
27572;SDS011;15009;53.082;8.768;2022-09-09T00:34:46;38.05;;;24.08;;
27572;SDS011;15009;53.082;8.768;2022-09-09T00:37:56;31.20;;;23.23;;
27572;SDS011;15009;53.082;8.768;2022-09-09T00:47:32;40.40;;;24.80;;
27572;SDS011;15009;53.082;8.768;2022-09-09T00:50:48;31.88;;;23.27;;
27572;SDS011;15009;53.082;8.768;2022-09-09T00:57:00;40.53;;;26.25;;
27572;SDS011;15009;53.082;8.768;2022-09-09T01:06:35;38.42;;;25.63;;
27572;SDS011;15009;53.082;8.768;2022-09-09T01:09:42;41.22;;;28.90;;
27572;SDS011;15009;53.082;8.768;2022-09-09T01:13:00;42.95;;;28.60;;
27572;SDS011;15009;53.082;8.768;2022-09-09T01:16:08;42.75;;;27.67;;
27572;SDS011;15009;53.082;8.768;2022-09-09T01:19:14;40.47;;;27.80;;
27572;SDS011;15009;53.082;8.768;2022-09-09T01:28:44;37.47;;;26.13;;
27572;SDS011;15009;53.082;8.768;2022-09-09T01:34:56;36.00;;;25.95;;
27572;SDS011;15009;53.082;8.768;2022-09-09T01:37:57;34.47;;;23.35;;
27572;SDS011;15009;53.082;8.768;2022-09-09T01:40:58;34.13;;;24.25;;
27572;SDS011;15009;53.082;8.768;2022-09-09T01:43:59;35.20;;;24.13;;
27572;SDS011;15009;53.082;8.768;2022-09-09T01:46:59;37.97;;;24.30;;
27572;SDS011;15009;53.082;8.768;2022-09-09T01:50:00;38.00;;;23.17;;
27572;SDS011;15009;53.082;8.768;2022-09-09T02:08:49;34.85;;;21.42;;
27572;SDS011;15009;53.082;8.768;2022-09-09T02:11:54;27.90;;;20.60;;
27572;SDS011;15009;53.082;8.768;2022-09-09T02:15:03;26.50;;;19.63;;
27572;SDS011;15009;53.082;8.768;2022-09-09T02:18:08;27.67;;;19.50;;
27572;SDS011;15009;53.082;8.768;2022-09-09T02:21:11;30.13;;;19.50;;
27572;SDS011;15009;53.082;8.768;2022-09-09T02:24:14;27.02;;;18.38;;
27572;SDS011;15009;53.082;8.768;2022-09-09T02:27:16;26.65;;;17.58;;
27572;SDS011;15009;53.082;8.768;2022-09-09T02:30:19;25.08;;;17.67;;
27572;SDS011;15009;53.082;8.768;2022-09-09T02:33:24;24.02;;;17.27;;
27572;SDS011;15009;53.082;8.768;2022-09-09T02:36:28;28.33;;;17.45;;
27572;SDS011;15009;53.082;8.768;2022-09-09T02:39:33;28.13;;;17.67;;
27572;SDS011;15009;53.082;8.768;2022-09-09T02:42:47;24.73;;;17.20;;
27572;SDS011;15009;53.082;8.768;2022-09-09T02:45:51;22.42;;;17.17;;
27572;SDS011;15009;53.082;8.768;2022-09-09T02:49:00;26.77;;;16.85;;
27572;SDS011;15009;53.082;8.768;2022-09-09T02:52:24;24.48;;;16.73;;
27572;SDS011;15009;53.082;8.768;2022-09-09T02:55:39;24.55;;;15.85;;
27572;SDS011;15009;53.082;8.768;2022-09-09T02:58:44;21.83;;;16.30;;
27572;SDS011;15009;53.082;8.768;2022-09-09T03:01:46;22.02;;;15.93;;
27572;SDS011;15009;53.082;8.768;2022-09-09T03:04:46;26.25;;;16.08;;
27572;SDS011;15009;53.082;8.768;2022-09-09T03:07:50;25.85;;;16.30;;
27572;SDS011;15009;53.082;8.768;2022-09-09T03:10:51;24.00;;;15.63;;
27572;SDS011;15009;53.082;8.768;2022-09-09T03:13:54;24.08;;;15.80;;
27572;SDS011;15009;53.082;8.768;2022-09-09T03:16:56;24.70;;;15.00;;
27572;SDS011;15009;53.082;8.768;2022-09-09T03:20:01;24.08;;;14.98;;
27572;SDS011;15009;53.082;8.768;2022-09-09T03:26:03;21.42;;;14.68;;
27572;SDS011;15009;53.082;8.768;2022-09-09T03:29:04;16.52;;;13.48;;
27572;SDS011;15009;53.082;8.768;2022-09-09T03:32:07;19.00;;;13.75;;
27572;SDS011;15009;53.082;8.768;2022-09-09T03:35:10;19.20;;;13.07;;
27572;SDS011;15009;53.082;8.768;2022-09-09T03:38:11;18.48;;;12.88;;
27572;SDS011;15009;53.082;8.768;2022-09-09T03:41:12;21.55;;;13.98;;
27572;SDS011;15009;53.082;8.768;2022-09-09T03:44:12;21.02;;;15.35;;
27572;SDS011;15009;53.082;8.768;2022-09-09T03:47:13;17.67;;;13.20;;
27572;SDS011;15009;53.082;8.768;2022-09-09T03:50:14;21.30;;;12.50;;
27572;SDS011;15009;53.082;8.768;2022-09-09T03:53:15;18.50;;;11.98;;
27572;SDS011;15009;53.082;8.768;2022-09-09T03:56:17;18.17;;;11.60;;
27572;SDS011;15009;53.082;8.768;2022-09-09T03:59:17;17.45;;;12.23;;
27572;SDS011;15009;53.082;8.768;2022-09-09T04:02:18;22.48;;;11.73;;
27572;SDS011;15009;53.082;8.768;2022-09-09T04:05:19;18.77;;;11.20;;
27572;SDS011;15009;53.082;8.768;2022-09-09T04:08:20;17.55;;;11.57;;
27572;SDS011;15009;53.082;8.768;2022-09-09T04:11:21;15.68;;;11.38;;
27572;SDS011;15009;53.082;8.768;2022-09-09T04:14:22;16.77;;;10.48;;
27572;SDS011;15009;53.082;8.768;2022-09-09T04:17:22;19.23;;;10.70;;
27572;SDS011;15009;53.082;8.768;2022-09-09T04:20:23;15.23;;;10.10;;
27572;SDS011;15009;53.082;8.768;2022-09-09T04:23:24;15.55;;;9.95;;
27572;SDS011;15009;53.082;8.768;2022-09-09T04:26:27;15.13;;;10.30;;
27572;SDS011;15009;53.082;8.768;2022-09-09T04:29:27;13.30;;;9.88;;
27572;SDS011;15009;53.082;8.768;2022-09-09T04:32:28;15.32;;;9.90;;
27572;SDS011;15009;53.082;8.768;2022-09-09T04:35:28;21.10;;;11.90;;
27572;SDS011;15009;53.082;8.768;2022-09-09T04:38:29;17.67;;;9.40;;
27572;SDS011;15009;53.082;8.768;2022-09-09T04:41:30;13.27;;;9.63;;
27572;SDS011;15009;53.082;8.768;2022-09-09T04:44:31;14.32;;;9.73;;
27572;SDS011;15009;53.082;8.768;2022-09-09T04:47:32;14.60;;;9.77;;
27572;SDS011;15009;53.082;8.768;2022-09-09T04:50:35;13.75;;;9.15;;
27572;SDS011;15009;53.082;8.768;2022-09-09T04:53:35;17.75;;;9.40;;
27572;SDS011;15009;53.082;8.768;2022-09-09T04:56:36;14.18;;;9.13;;
27572;SDS011;15009;53.082;8.768;2022-09-09T04:59:36;16.63;;;9.23;;
27572;SDS011;15009;53.082;8.768;2022-09-09T05:02:37;14.00;;;9.38;;
27572;SDS011;15009;53.082;8.768;2022-09-09T05:05:38;17.73;;;8.88;;
27572;SDS011;15009;53.082;8.768;2022-09-09T05:08:40;13.45;;;8.50;;
27572;SDS011;15009;53.082;8.768;2022-09-09T05:14:42;15.60;;;9.60;;
27572;SDS011;15009;53.082;8.768;2022-09-09T05:17:43;12.87;;;8.67;;
27572;SDS011;15009;53.082;8.768;2022-09-09T05:20:44;16.00;;;10.02;;
27572;SDS011;15009;53.082;8.768;2022-09-09T05:23:45;21.88;;;15.25;;
27572;SDS011;15009;53.082;8.768;2022-09-09T05:26:46;16.03;;;8.83;;
27572;SDS011;15009;53.082;8.768;2022-09-09T05:29:47;12.95;;;8.73;;
27572;SDS011;15009;53.082;8.768;2022-09-09T05:32:48;19.60;;;8.35;;
27572;SDS011;15009;53.082;8.768;2022-09-09T05:35:54;13.02;;;8.30;;
27572;SDS011;15009;53.082;8.768;2022-09-09T05:39:03;12.98;;;7.88;;
27572;SDS011;15009;53.082;8.768;2022-09-09T05:42:04;19.27;;;8.38;;
27572;SDS011;15009;53.082;8.768;2022-09-09T05:45:06;15.50;;;7.63;;
27572;SDS011;15009;53.082;8.768;2022-09-09T05:48:07;16.60;;;7.70;;
27572;SDS011;15009;53.082;8.768;2022-09-09T05:51:10;12.43;;;7.20;;
27572;SDS011;15009;53.082;8.768;2022-09-09T05:54:17;14.48;;;7.57;;
27572;SDS011;15009;53.082;8.768;2022-09-09T05:57:18;14.13;;;7.05;;
27572;SDS011;15009;53.082;8.768;2022-09-09T06:00:19;11.85;;;6.63;;
27572;SDS011;15009;53.082;8.768;2022-09-09T06:03:21;15.55;;;7.88;;
27572;SDS011;15009;53.082;8.768;2022-09-09T06:06:24;13.20;;;7.05;;
27572;SDS011;15009;53.082;8.768;2022-09-09T06:09:33;10.98;;;7.18;;
27572;SDS011;15009;53.082;8.768;2022-09-09T06:12:33;11.50;;;7.97;;
27572;SDS011;15009;53.082;8.768;2022-09-09T06:15:34;11.77;;;7.40;;
27572;SDS011;15009;53.082;8.768;2022-09-09T06:18:35;12.88;;;7.13;;
27572;SDS011;15009;53.082;8.768;2022-09-09T06:21:36;14.70;;;6.93;;
27572;SDS011;15009;53.082;8.768;2022-09-09T06:24:37;14.23;;;7.13;;
27572;SDS011;15009;53.082;8.768;2022-09-09T06:27:38;19.92;;;12.65;;
27572;SDS011;15009;53.082;8.768;2022-09-09T06:30:39;12.82;;;7.15;;
27572;SDS011;15009;53.082;8.768;2022-09-09T06:33:40;11.90;;;6.80;;
27572;SDS011;15009;53.082;8.768;2022-09-09T06:36:42;12.93;;;6.78;;
27572;SDS011;15009;53.082;8.768;2022-09-09T06:39:42;8.75;;;6.43;;
27572;SDS011;15009;53.082;8.768;2022-09-09T06:42:43;9.75;;;7.03;;
27572;SDS011;15009;53.082;8.768;2022-09-09T06:45:52;11.07;;;6.97;;
27572;SDS011;15009;53.082;8.768;2022-09-09T06:48:56;17.25;;;7.03;;
27572;SDS011;15009;53.082;8.768;2022-09-09T06:51:59;15.57;;;7.50;;
27572;SDS011;15009;53.082;8.768;2022-09-09T06:55:00;13.93;;;6.82;;
27572;SDS011;15009;53.082;8.768;2022-09-09T06:58:00;13.63;;;6.85;;
27572;SDS011;15009;53.082;8.768;2022-09-09T07:01:05;11.43;;;6.85;;
27572;SDS011;15009;53.082;8.768;2022-09-09T07:04:06;11.18;;;8.05;;
27572;SDS011;15009;53.082;8.768;2022-09-09T07:10:12;8.70;;;6.25;;
27572;SDS011;15009;53.082;8.768;2022-09-09T07:13:13;10.98;;;6.60;;
27572;SDS011;15009;53.082;8.768;2022-09-09T07:16:16;9.50;;;6.55;;
27572;SDS011;15009;53.082;8.768;2022-09-09T07:19:18;10.15;;;7.20;;
27572;SDS011;15009;53.082;8.768;2022-09-09T07:22:19;11.13;;;6.32;;
27572;SDS011;15009;53.082;8.768;2022-09-09T07:25:20;8.80;;;6.70;;
27572;SDS011;15009;53.082;8.768;2022-09-09T07:28:22;10.60;;;6.40;;
27572;SDS011;15009;53.082;8.768;2022-09-09T07:31:24;8.93;;;6.55;;
27572;SDS011;15009;53.082;8.768;2022-09-09T07:34:36;7.43;;;6.38;;
27572;SDS011;15009;53.082;8.768;2022-09-09T07:37:37;6.70;;;5.50;;
27572;SDS011;15009;53.082;8.768;2022-09-09T07:40:37;7.30;;;5.80;;
27572;SDS011;15009;53.082;8.768;2022-09-09T07:43:40;7.15;;;5.60;;
27572;SDS011;15009;53.082;8.768;2022-09-09T07:46:41;7.40;;;5.38;;
27572;SDS011;15009;53.082;8.768;2022-09-09T07:52:46;8.65;;;4.90;;
27572;SDS011;15009;53.082;8.768;2022-09-09T07:55:46;6.40;;;3.50;;
27572;SDS011;15009;53.082;8.768;2022-09-09T07:58:47;7.17;;;3.60;;
27572;SDS011;15009;53.082;8.768;2022-09-09T08:01:49;5.68;;;3.70;;
27572;SDS011;15009;53.082;8.768;2022-09-09T08:04:53;10.30;;;4.78;;
27572;SDS011;15009;53.082;8.768;2022-09-09T08:07:53;8.83;;;5.40;;
27572;SDS011;15009;53.082;8.768;2022-09-09T08:11:00;9.63;;;4.50;;
27572;SDS011;15009;53.082;8.768;2022-09-09T08:14:05;8.55;;;4.35;;
27572;SDS011;15009;53.082;8.768;2022-09-09T08:17:07;7.25;;;4.35;;
27572;SDS011;15009;53.082;8.768;2022-09-09T08:20:08;6.23;;;3.20;;
27572;SDS011;15009;53.082;8.768;2022-09-09T08:23:09;6.40;;;4.30;;
27572;SDS011;15009;53.082;8.768;2022-09-09T08:26:11;8.60;;;4.57;;
27572;SDS011;15009;53.082;8.768;2022-09-09T08:29:13;5.43;;;2.95;;
27572;SDS011;15009;53.082;8.768;2022-09-09T08:32:14;5.75;;;4.25;;
27572;SDS011;15009;53.082;8.768;2022-09-09T08:35:16;7.00;;;3.97;;
27572;SDS011;15009;53.082;8.768;2022-09-09T08:38:17;9.10;;;4.40;;
27572;SDS011;15009;53.082;8.768;2022-09-09T08:51:14;6.03;;;2.60;;
27572;SDS011;15009;53.082;8.768;2022-09-09T08:54:14;7.85;;;3.05;;
27572;SDS011;15009;53.082;8.768;2022-09-09T08:57:18;8.07;;;3.17;;
27572;SDS011;15009;53.082;8.768;2022-09-09T09:01:14;7.63;;;3.92;;
27572;SDS011;15009;53.082;8.768;2022-09-09T09:10:31;6.63;;;3.50;;
27572;SDS011;15009;53.082;8.768;2022-09-09T09:13:41;6.10;;;2.70;;
27572;SDS011;15009;53.082;8.768;2022-09-09T09:16:59;5.90;;;2.50;;
27572;SDS011;15009;53.082;8.768;2022-09-09T09:20:00;6.28;;;2.60;;
27572;SDS011;15009;53.082;8.768;2022-09-09T09:23:01;6.43;;;2.60;;
27572;SDS011;15009;53.082;8.768;2022-09-09T09:26:06;3.97;;;2.47;;
27572;SDS011;15009;53.082;8.768;2022-09-09T09:29:10;7.35;;;2.85;;
27572;SDS011;15009;53.082;8.768;2022-09-09T09:32:16;5.15;;;2.28;;
27572;SDS011;15009;53.082;8.768;2022-09-09T09:35:20;8.27;;;2.40;;
27572;SDS011;15009;53.082;8.768;2022-09-09T09:38:21;4.78;;;2.55;;
27572;SDS011;15009;53.082;8.768;2022-09-09T09:41:36;6.00;;;2.28;;
27572;SDS011;15009;53.082;8.768;2022-09-09T09:44:40;6.07;;;2.30;;
27572;SDS011;15009;53.082;8.768;2022-09-09T09:51:03;5.75;;;2.10;;
27572;SDS011;15009;53.082;8.768;2022-09-09T09:54:29;9.07;;;2.40;;
27572;SDS011;15009;53.082;8.768;2022-09-09T09:57:32;7.38;;;2.60;;
27572;SDS011;15009;53.082;8.768;2022-09-09T10:00:34;12.32;;;3.70;;
27572;SDS011;15009;53.082;8.768;2022-09-09T10:03:35;9.95;;;3.38;;
27572;SDS011;15009;53.082;8.768;2022-09-09T10:06:39;8.35;;;2.90;;
27572;SDS011;15009;53.082;8.768;2022-09-09T10:09:40;4.50;;;2.60;;
27572;SDS011;15009;53.082;8.768;2022-09-09T10:12:47;8.70;;;2.20;;
27572;SDS011;15009;53.082;8.768;2022-09-09T10:19:30;3.75;;;2.40;;
27572;SDS011;15009;53.082;8.768;2022-09-09T10:22:33;5.75;;;2.33;;
27572;SDS011;15009;53.082;8.768;2022-09-09T10:25:48;6.22;;;2.20;;
27572;SDS011;15009;53.082;8.768;2022-09-09T10:30:03;11.20;;;2.80;;
27572;SDS011;15009;53.082;8.768;2022-09-09T10:35:42;5.30;;;3.08;;
27572;SDS011;15009;53.082;8.768;2022-09-09T10:39:36;7.38;;;3.53;;
27572;SDS011;15009;53.082;8.768;2022-09-09T10:42:40;6.28;;;3.03;;
27572;SDS011;15009;53.082;8.768;2022-09-09T10:45:52;8.10;;;3.08;;
27572;SDS011;15009;53.082;8.768;2022-09-09T10:56:15;6.53;;;2.78;;
27572;SDS011;15009;53.082;8.768;2022-09-09T11:02:29;14.73;;;8.73;;
27572;SDS011;15009;53.082;8.768;2022-09-09T11:05:36;6.97;;;2.80;;
27572;SDS011;15009;53.082;8.768;2022-09-09T11:08:41;6.60;;;2.90;;
27572;SDS011;15009;53.082;8.768;2022-09-09T11:11:48;5.75;;;2.90;;
27572;SDS011;15009;53.082;8.768;2022-09-09T11:14:55;7.40;;;3.00;;
27572;SDS011;15009;53.082;8.768;2022-09-09T11:18:02;5.32;;;2.47;;
27572;SDS011;15009;53.082;8.768;2022-09-09T11:21:04;9.27;;;2.90;;
27572;SDS011;15009;53.082;8.768;2022-09-09T11:28:28;7.75;;;2.47;;
27572;SDS011;15009;53.082;8.768;2022-09-09T11:31:03;9.27;;;2.40;;
27572;SDS011;15009;53.082;8.768;2022-09-09T11:41:14;11.50;;;3.10;;
27572;SDS011;15009;53.082;8.768;2022-09-09T11:44:26;8.23;;;2.70;;
27572;SDS011;15009;53.082;8.768;2022-09-09T11:47:30;6.82;;;2.58;;
27572;SDS011;15009;53.082;8.768;2022-09-09T11:53:34;8.88;;;2.95;;
27572;SDS011;15009;53.082;8.768;2022-09-09T11:56:47;7.82;;;3.00;;
27572;SDS011;15009;53.082;8.768;2022-09-09T11:59:51;7.93;;;3.00;;
27572;SDS011;15009;53.082;8.768;2022-09-09T12:02:52;8.13;;;3.03;;
27572;SDS011;15009;53.082;8.768;2022-09-09T12:05:53;7.47;;;2.90;;
27572;SDS011;15009;53.082;8.768;2022-09-09T12:08:55;14.13;;;7.18;;
27572;SDS011;15009;53.082;8.768;2022-09-09T12:18:14;17.55;;;4.25;;
27572;SDS011;15009;53.082;8.768;2022-09-09T12:21:33;15.10;;;5.13;;
27572;SDS011;15009;53.082;8.768;2022-09-09T12:24:45;17.02;;;5.22;;
27572;SDS011;15009;53.082;8.768;2022-09-09T12:28:04;14.07;;;4.75;;
27572;SDS011;15009;53.082;8.768;2022-09-09T12:31:25;14.77;;;4.18;;
27572;SDS011;15009;53.082;8.768;2022-09-09T12:34:34;15.40;;;5.90;;
27572;SDS011;15009;53.082;8.768;2022-09-09T12:37:40;16.98;;;6.28;;
27572;SDS011;15009;53.082;8.768;2022-09-09T12:40:58;14.40;;;6.03;;
27572;SDS011;15009;53.082;8.768;2022-09-09T12:44:08;18.63;;;6.15;;
27572;SDS011;15009;53.082;8.768;2022-09-09T12:47:09;19.05;;;7.38;;
27572;SDS011;15009;53.082;8.768;2022-09-09T12:50:22;13.27;;;6.40;;
27572;SDS011;15009;53.082;8.768;2022-09-09T12:53:35;13.35;;;6.95;;
27572;SDS011;15009;53.082;8.768;2022-09-09T12:56:37;15.82;;;7.28;;
27572;SDS011;15009;53.082;8.768;2022-09-09T12:59:39;15.18;;;7.38;;
27572;SDS011;15009;53.082;8.768;2022-09-09T13:02:49;14.80;;;6.68;;
27572;SDS011;15009;53.082;8.768;2022-09-09T13:05:53;12.43;;;5.50;;
27572;SDS011;15009;53.082;8.768;2022-09-09T13:09:00;22.73;;;15.02;;
27572;SDS011;15009;53.082;8.768;2022-09-09T13:12:02;13.80;;;5.63;;
27572;SDS011;15009;53.082;8.768;2022-09-09T13:15:05;12.98;;;5.32;;
27572;SDS011;15009;53.082;8.768;2022-09-09T13:18:14;10.48;;;4.70;;
27572;SDS011;15009;53.082;8.768;2022-09-09T13:21:16;13.82;;;4.82;;
27572;SDS011;15009;53.082;8.768;2022-09-09T13:24:35;15.43;;;5.15;;
27572;SDS011;15009;53.082;8.768;2022-09-09T13:27:40;9.32;;;4.20;;
27572;SDS011;15009;53.082;8.768;2022-09-09T13:30:57;11.32;;;4.43;;
27572;SDS011;15009;53.082;8.768;2022-09-09T13:33:59;10.73;;;4.93;;
27572;SDS011;15009;53.082;8.768;2022-09-09T13:37:22;9.88;;;3.95;;
27572;SDS011;15009;53.082;8.768;2022-09-09T13:40:31;8.98;;;4.70;;
27572;SDS011;15009;53.082;8.768;2022-09-09T13:43:34;11.05;;;4.07;;
27572;SDS011;15009;53.082;8.768;2022-09-09T13:46:41;7.95;;;3.80;;
27572;SDS011;15009;53.082;8.768;2022-09-09T13:49:42;10.82;;;4.18;;
27572;SDS011;15009;53.082;8.768;2022-09-09T13:52:43;8.32;;;3.67;;
27572;SDS011;15009;53.082;8.768;2022-09-09T13:55:44;7.80;;;3.10;;
27572;SDS011;15009;53.082;8.768;2022-09-09T13:58:44;8.68;;;3.70;;
27572;SDS011;15009;53.082;8.768;2022-09-09T14:01:45;12.38;;;4.22;;
27572;SDS011;15009;53.082;8.768;2022-09-09T14:04:46;9.17;;;3.20;;
27572;SDS011;15009;53.082;8.768;2022-09-09T14:07:50;10.38;;;3.45;;
27572;SDS011;15009;53.082;8.768;2022-09-09T14:10:51;9.30;;;3.45;;
27572;SDS011;15009;53.082;8.768;2022-09-09T14:13:52;11.82;;;4.03;;
27572;SDS011;15009;53.082;8.768;2022-09-09T14:16:52;8.82;;;3.88;;
27572;SDS011;15009;53.082;8.768;2022-09-09T14:19:53;13.38;;;4.20;;
27572;SDS011;15009;53.082;8.768;2022-09-09T14:22:54;12.18;;;6.15;;
27572;SDS011;15009;53.082;8.768;2022-09-09T14:25:54;14.80;;;4.28;;
27572;SDS011;15009;53.082;8.768;2022-09-09T14:28:55;9.07;;;4.10;;
27572;SDS011;15009;53.082;8.768;2022-09-09T14:31:56;15.27;;;4.78;;
27572;SDS011;15009;53.082;8.768;2022-09-09T14:34:57;10.68;;;4.60;;
27572;SDS011;15009;53.082;8.768;2022-09-09T14:38:00;10.23;;;4.65;;
27572;SDS011;15009;53.082;8.768;2022-09-09T14:41:01;9.13;;;4.32;;
27572;SDS011;15009;53.082;8.768;2022-09-09T14:44:03;8.93;;;4.68;;
27572;SDS011;15009;53.082;8.768;2022-09-09T14:47:06;12.02;;;5.20;;
27572;SDS011;15009;53.082;8.768;2022-09-09T14:50:08;12.38;;;5.30;;
27572;SDS011;15009;53.082;8.768;2022-09-09T14:53:09;12.82;;;4.68;;
27572;SDS011;15009;53.082;8.768;2022-09-09T14:56:14;11.23;;;5.68;;
27572;SDS011;15009;53.082;8.768;2022-09-09T14:59:16;11.23;;;4.90;;
27572;SDS011;15009;53.082;8.768;2022-09-09T15:02:17;8.30;;;5.15;;
27572;SDS011;15009;53.082;8.768;2022-09-09T15:05:17;9.68;;;5.40;;
27572;SDS011;15009;53.082;8.768;2022-09-09T15:08:19;10.63;;;5.25;;
27572;SDS011;15009;53.082;8.768;2022-09-09T15:11:19;8.20;;;4.53;;
27572;SDS011;15009;53.082;8.768;2022-09-09T15:14:20;10.05;;;4.75;;
27572;SDS011;15009;53.082;8.768;2022-09-09T15:17:21;9.13;;;4.97;;
27572;SDS011;15009;53.082;8.768;2022-09-09T15:20:22;11.05;;;5.00;;
27572;SDS011;15009;53.082;8.768;2022-09-09T15:23:23;8.98;;;4.70;;
27572;SDS011;15009;53.082;8.768;2022-09-09T15:26:23;8.35;;;4.55;;
27572;SDS011;15009;53.082;8.768;2022-09-09T15:29:24;8.68;;;4.78;;
27572;SDS011;15009;53.082;8.768;2022-09-09T15:32:25;12.48;;;4.80;;
27572;SDS011;15009;53.082;8.768;2022-09-09T15:35:25;7.93;;;4.10;;
27572;SDS011;15009;53.082;8.768;2022-09-09T15:38:26;8.20;;;4.65;;
27572;SDS011;15009;53.082;8.768;2022-09-09T15:41:27;12.77;;;4.90;;
27572;SDS011;15009;53.082;8.768;2022-09-09T15:44:28;12.20;;;5.10;;
27572;SDS011;15009;53.082;8.768;2022-09-09T15:47:29;13.52;;;5.15;;
27572;SDS011;15009;53.082;8.768;2022-09-09T15:50:29;7.15;;;4.15;;
27572;SDS011;15009;53.082;8.768;2022-09-09T15:53:32;8.68;;;4.47;;
27572;SDS011;15009;53.082;8.768;2022-09-09T15:56:33;10.13;;;4.30;;
27572;SDS011;15009;53.082;8.768;2022-09-09T15:59:34;9.52;;;4.28;;
27572;SDS011;15009;53.082;8.768;2022-09-09T16:02:35;11.05;;;4.35;;
27572;SDS011;15009;53.082;8.768;2022-09-09T16:05:36;9.43;;;3.92;;
27572;SDS011;15009;53.082;8.768;2022-09-09T16:08:38;9.50;;;6.05;;
27572;SDS011;15009;53.082;8.768;2022-09-09T16:11:40;9.73;;;3.78;;
27572;SDS011;15009;53.082;8.768;2022-09-09T16:14:41;7.05;;;3.40;;
27572;SDS011;15009;53.082;8.768;2022-09-09T16:17:41;5.70;;;3.08;;
27572;SDS011;15009;53.082;8.768;2022-09-09T16:20:42;7.53;;;3.28;;
27572;SDS011;15009;53.082;8.768;2022-09-09T16:23:43;9.10;;;3.58;;
27572;SDS011;15009;53.082;8.768;2022-09-09T16:26:45;4.97;;;3.08;;
27572;SDS011;15009;53.082;8.768;2022-09-09T16:29:51;10.10;;;3.25;;
27572;SDS011;15009;53.082;8.768;2022-09-09T16:32:51;7.32;;;3.30;;
27572;SDS011;15009;53.082;8.768;2022-09-09T16:35:52;10.68;;;3.70;;
27572;SDS011;15009;53.082;8.768;2022-09-09T16:38:53;10.15;;;4.03;;
27572;SDS011;15009;53.082;8.768;2022-09-09T16:41:55;9.18;;;4.00;;
27572;SDS011;15009;53.082;8.768;2022-09-09T16:44:57;8.10;;;3.40;;
27572;SDS011;15009;53.082;8.768;2022-09-09T16:47:57;7.18;;;3.47;;
27572;SDS011;15009;53.082;8.768;2022-09-09T16:51:06;8.07;;;3.70;;
27572;SDS011;15009;53.082;8.768;2022-09-09T16:54:10;6.95;;;3.53;;
27572;SDS011;15009;53.082;8.768;2022-09-09T16:57:12;6.60;;;2.83;;
27572;SDS011;15009;53.082;8.768;2022-09-09T17:00:12;5.75;;;3.03;;
27572;SDS011;15009;53.082;8.768;2022-09-09T17:03:13;5.90;;;2.50;;
27572;SDS011;15009;53.082;8.768;2022-09-09T17:06:14;4.18;;;2.25;;
27572;SDS011;15009;53.082;8.768;2022-09-09T17:09:15;6.87;;;2.80;;
27572;SDS011;15009;53.082;8.768;2022-09-09T17:12:16;5.70;;;2.53;;
27572;SDS011;15009;53.082;8.768;2022-09-09T17:15:17;7.30;;;3.10;;
27572;SDS011;15009;53.082;8.768;2022-09-09T17:18:21;9.30;;;3.03;;
27572;SDS011;15009;53.082;8.768;2022-09-09T17:21:23;6.45;;;4.10;;
27572;SDS011;15009;53.082;8.768;2022-09-09T17:24:27;4.95;;;2.90;;
27572;SDS011;15009;53.082;8.768;2022-09-09T17:27:29;8.93;;;3.38;;
27572;SDS011;15009;53.082;8.768;2022-09-09T17:30:33;9.63;;;3.90;;
27572;SDS011;15009;53.082;8.768;2022-09-09T17:33:36;12.13;;;5.60;;
27572;SDS011;15009;53.082;8.768;2022-09-09T17:36:38;8.80;;;4.10;;
27572;SDS011;15009;53.082;8.768;2022-09-09T17:39:39;12.55;;;5.38;;
27572;SDS011;15009;53.082;8.768;2022-09-09T17:42:39;6.82;;;4.10;;
27572;SDS011;15009;53.082;8.768;2022-09-09T17:45:40;11.57;;;5.13;;
27572;SDS011;15009;53.082;8.768;2022-09-09T17:48:41;8.30;;;4.43;;
27572;SDS011;15009;53.082;8.768;2022-09-09T17:51:43;9.13;;;4.85;;
27572;SDS011;15009;53.082;8.768;2022-09-09T17:54:44;14.00;;;6.40;;
27572;SDS011;15009;53.082;8.768;2022-09-09T17:57:45;36.92;;;24.35;;
27572;SDS011;15009;53.082;8.768;2022-09-09T18:00:46;27.65;;;20.70;;
27572;SDS011;15009;53.082;8.768;2022-09-09T18:03:48;9.43;;;4.93;;
27572;SDS011;15009;53.082;8.768;2022-09-09T18:06:51;8.57;;;4.82;;
27572;SDS011;15009;53.082;8.768;2022-09-09T18:09:53;10.15;;;5.30;;
27572;SDS011;15009;53.082;8.768;2022-09-09T18:12:53;10.13;;;5.07;;
27572;SDS011;15009;53.082;8.768;2022-09-09T18:15:55;7.65;;;4.30;;
27572;SDS011;15009;53.082;8.768;2022-09-09T18:18:57;8.68;;;4.97;;
27572;SDS011;15009;53.082;8.768;2022-09-09T18:21:58;12.70;;;5.87;;
27572;SDS011;15009;53.082;8.768;2022-09-09T18:25:00;10.90;;;5.93;;
27572;SDS011;15009;53.082;8.768;2022-09-09T18:28:01;11.60;;;5.60;;
27572;SDS011;15009;53.082;8.768;2022-09-09T18:31:06;11.38;;;5.38;;
27572;SDS011;15009;53.082;8.768;2022-09-09T18:34:08;7.68;;;5.20;;
27572;SDS011;15009;53.082;8.768;2022-09-09T18:37:10;10.38;;;6.65;;
27572;SDS011;15009;53.082;8.768;2022-09-09T18:40:12;14.52;;;6.95;;
27572;SDS011;15009;53.082;8.768;2022-09-09T18:43:13;8.77;;;6.53;;
27572;SDS011;15009;53.082;8.768;2022-09-09T18:46:14;15.60;;;6.05;;
27572;SDS011;15009;53.082;8.768;2022-09-09T18:49:15;11.82;;;6.75;;
27572;SDS011;15009;53.082;8.768;2022-09-09T18:52:16;9.27;;;5.78;;
27572;SDS011;15009;53.082;8.768;2022-09-09T18:55:16;10.38;;;6.80;;
27572;SDS011;15009;53.082;8.768;2022-09-09T18:58:17;14.30;;;8.82;;
27572;SDS011;15009;53.082;8.768;2022-09-09T19:01:18;12.77;;;8.80;;
27572;SDS011;15009;53.082;8.768;2022-09-09T19:04:19;9.80;;;5.82;;
27572;SDS011;15009;53.082;8.768;2022-09-09T19:07:22;10.40;;;5.95;;
27572;SDS011;15009;53.082;8.768;2022-09-09T19:10:22;8.90;;;4.70;;
27572;SDS011;15009;53.082;8.768;2022-09-09T19:13:23;7.18;;;4.88;;
27572;SDS011;15009;53.082;8.768;2022-09-09T19:16:25;7.90;;;5.82;;
27572;SDS011;15009;53.082;8.768;2022-09-09T19:19:29;10.50;;;5.55;;
27572;SDS011;15009;53.082;8.768;2022-09-09T19:22:31;9.75;;;5.82;;
27572;SDS011;15009;53.082;8.768;2022-09-09T19:25:35;11.32;;;6.28;;
27572;SDS011;15009;53.082;8.768;2022-09-09T19:28:38;11.57;;;6.22;;
27572;SDS011;15009;53.082;8.768;2022-09-09T19:31:39;10.68;;;6.40;;
27572;SDS011;15009;53.082;8.768;2022-09-09T19:34:43;25.83;;;18.80;;
27572;SDS011;15009;53.082;8.768;2022-09-09T19:37:44;12.02;;;7.45;;
27572;SDS011;15009;53.082;8.768;2022-09-09T19:40:45;54.63;;;42.70;;
27572;SDS011;15009;53.082;8.768;2022-09-09T19:43:46;12.25;;;7.75;;
27572;SDS011;15009;53.082;8.768;2022-09-09T19:46:47;13.32;;;8.02;;
27572;SDS011;15009;53.082;8.768;2022-09-09T19:49:49;15.93;;;7.82;;
27572;SDS011;15009;53.082;8.768;2022-09-09T19:52:50;16.30;;;8.32;;
27572;SDS011;15009;53.082;8.768;2022-09-09T19:55:51;16.20;;;8.63;;
27572;SDS011;15009;53.082;8.768;2022-09-09T19:58:52;14.20;;;8.55;;
27572;SDS011;15009;53.082;8.768;2022-09-09T20:01:54;15.73;;;9.00;;
27572;SDS011;15009;53.082;8.768;2022-09-09T20:04:55;16.30;;;9.40;;
27572;SDS011;15009;53.082;8.768;2022-09-09T20:07:57;13.27;;;9.23;;
27572;SDS011;15009;53.082;8.768;2022-09-09T20:10:57;14.93;;;9.55;;